createdAt,value
2022-10-05T00:01:47.747Z,2.45
2022-10-05T00:04:18.676Z,2.13
2022-10-05T00:07:00.929Z,1.85
2022-10-05T00:09:31.651Z,2.50
2022-10-05T00:11:58.402Z,2.40
2022-10-05T00:14:31.353Z,3.00
2022-10-05T00:16:58.374Z,3.13
2022-10-05T00:19:37.527Z,2.35
2022-10-05T00:22:21.006Z,2.40
2022-10-05T00:24:50.343Z,2.25
2022-10-05T00:27:24.605Z,2.42
2022-10-05T00:29:53.886Z,2.00
2022-10-05T00:32:20.391Z,1.98
2022-10-05T00:34:47.231Z,1.70
2022-10-05T00:37:14.402Z,2.53
2022-10-05T00:39:42.484Z,3.25
2022-10-05T00:42:46.423Z,2.25
2022-10-05T00:45:15.327Z,2.40
2022-10-05T00:47:49.693Z,2.05
2022-10-05T00:50:53.686Z,2.00
2022-10-05T00:53:42.542Z,1.90
2022-10-05T00:56:33.212Z,2.20
2022-10-05T00:59:20.696Z,1.85
2022-10-05T01:01:57.826Z,2.08
2022-10-05T01:05:03.587Z,1.80
2022-10-05T01:07:42.354Z,1.77
2022-10-05T01:10:35.162Z,1.92
2022-10-05T01:13:15.247Z,1.80
2022-10-05T01:16:07.515Z,1.70
2022-10-05T01:18:46.352Z,1.60
2022-10-05T01:21:12.809Z,2.08
2022-10-05T01:24:02.388Z,1.40
2022-10-05T01:26:57.402Z,1.55
2022-10-05T01:29:23.842Z,2.20
2022-10-05T01:32:25.960Z,2.00
2022-10-05T01:35:07.764Z,2.10
2022-10-05T01:37:47.909Z,1.88
2022-10-05T01:40:26.825Z,1.45
2022-10-05T01:42:53.269Z,1.50
2022-10-05T01:45:43.331Z,2.13
2022-10-05T01:48:28.608Z,1.63
2022-10-05T01:51:00.991Z,2.13
2022-10-05T01:53:48.848Z,1.67
2022-10-05T01:56:15.300Z,2.30
2022-10-05T01:59:02.605Z,2.22
2022-10-05T02:01:54.067Z,2.10
2022-10-05T02:04:59.754Z,1.50
2022-10-05T02:07:43.941Z,2.30
2022-10-05T02:10:31.049Z,2.03
2022-10-05T02:13:02.552Z,1.73
2022-10-05T02:15:58.752Z,3.80
2022-10-05T02:18:36.676Z,1.95
2022-10-05T02:21:04.326Z,1.90
2022-10-05T02:23:33.651Z,2.05
2022-10-05T02:26:01.580Z,1.52
2022-10-05T02:28:38.397Z,1.58
2022-10-05T02:31:31.216Z,1.60
2022-10-05T02:34:28.695Z,1.48
2022-10-05T02:37:34.299Z,2.03
2022-10-05T02:40:22.347Z,1.45
2022-10-05T02:43:27.883Z,1.73
2022-10-05T02:46:19.524Z,1.90
2022-10-05T02:49:11.205Z,1.80
2022-10-05T02:52:05.751Z,2.30
2022-10-05T02:54:35.454Z,1.88
2022-10-05T02:57:39.920Z,1.65
2022-10-05T03:00:16.230Z,1.70
2022-10-05T03:03:06.314Z,1.95
2022-10-05T03:05:45.770Z,1.75
2022-10-05T03:08:41.656Z,1.70
2022-10-05T03:11:23.200Z,1.60
2022-10-05T03:14:13.504Z,1.85
2022-10-05T03:16:58.052Z,1.50
2022-10-05T03:19:49.276Z,2.00
2022-10-05T03:22:24.257Z,2.00
2022-10-05T03:24:50.730Z,1.80
2022-10-05T03:27:26.923Z,2.50
2022-10-05T03:29:56.071Z,1.75
2022-10-05T03:32:30.205Z,1.50
2022-10-05T03:35:18.397Z,1.88
2022-10-05T03:38:06.239Z,1.80
2022-10-05T03:40:50.529Z,1.42
2022-10-05T03:43:32.073Z,2.30
2022-10-05T03:46:10.775Z,1.92
2022-10-05T03:48:47.911Z,2.00
2022-10-05T03:51:38.216Z,1.80
2022-10-05T03:54:14.974Z,2.70
2022-10-05T03:56:48.730Z,1.83
2022-10-05T03:59:30.124Z,2.40
2022-10-05T04:02:02.309Z,1.30
2022-10-05T04:04:36.704Z,1.70
2022-10-05T04:07:04.546Z,1.70
2022-10-05T04:09:39.438Z,2.70
2022-10-05T04:12:21.821Z,2.20
2022-10-05T04:14:57.073Z,2.45
2022-10-05T04:17:33.692Z,2.78
2022-10-05T04:20:06.139Z,2.85
2022-10-05T04:22:40.536Z,2.33
2022-10-05T04:25:50.565Z,2.30
2022-10-05T04:28:31.949Z,1.90
2022-10-05T04:31:02.738Z,2.40
2022-10-05T04:33:29.353Z,1.92
2022-10-05T04:36:27.697Z,2.28
2022-10-05T04:39:05.555Z,1.80
2022-10-05T04:41:38.184Z,1.75
2022-10-05T04:44:10.277Z,2.60
2022-10-05T04:47:11.038Z,2.50
2022-10-05T04:50:07.626Z,1.90
2022-10-05T04:53:11.159Z,2.22
2022-10-05T04:55:55.331Z,2.08
2022-10-05T04:58:42.387Z,1.92
2022-10-05T05:01:24.867Z,2.05
2022-10-05T05:04:29.108Z,2.40
2022-10-05T05:07:03.211Z,1.77
2022-10-05T05:10:07.652Z,2.13
2022-10-05T05:12:57.751Z,2.00
2022-10-05T05:15:55.053Z,2.30
2022-10-05T05:18:59.488Z,1.90
2022-10-05T05:21:38.158Z,1.58
2022-10-05T05:24:21.962Z,1.60
2022-10-05T05:27:55.217Z,2.00
2022-10-05T05:30:27.149Z,1.90
2022-10-05T05:33:11.580Z,1.90
2022-10-05T05:35:40.726Z,2.35
2022-10-05T05:38:25.372Z,2.05
2022-10-05T05:40:57.714Z,2.03
2022-10-05T05:43:46.533Z,2.08
2022-10-05T05:46:33.957Z,1.85
2022-10-05T05:49:27.385Z,1.80
2022-10-05T05:52:38.395Z,2.10
2022-10-05T05:55:30.649Z,2.63
2022-10-05T05:58:06.235Z,1.83
2022-10-05T06:00:42.081Z,1.65
2022-10-05T06:03:19.098Z,1.80
2022-10-05T06:05:55.850Z,2.28
2022-10-05T06:08:36.080Z,2.00
2022-10-05T06:11:14.454Z,1.88
2022-10-05T06:13:42.634Z,1.80
2022-10-05T06:16:32.579Z,2.10
2022-10-05T06:19:04.983Z,1.63
2022-10-05T06:21:44.940Z,1.70
2022-10-05T06:24:21.305Z,2.00
2022-10-05T06:27:25.328Z,2.13
2022-10-05T06:30:07.118Z,1.83
2022-10-05T06:32:36.392Z,1.95
2022-10-05T06:35:08.976Z,2.03
2022-10-05T06:38:01.154Z,1.58
2022-10-05T06:40:42.850Z,1.95
2022-10-05T06:43:36.297Z,1.90
2022-10-05T06:46:22.981Z,1.67
2022-10-05T06:49:19.089Z,1.70
2022-10-05T06:51:58.071Z,1.95
2022-10-05T06:54:57.016Z,2.10
2022-10-05T06:57:46.703Z,2.55
2022-10-05T07:00:22.325Z,1.85
2022-10-05T07:03:24.877Z,2.50
2022-10-05T07:05:55.235Z,3.05
2022-10-05T07:08:48.990Z,2.65
2022-10-05T07:11:24.628Z,3.22
2022-10-05T07:14:22.323Z,2.70
2022-10-05T07:17:13.802Z,2.33
2022-10-05T07:20:23.785Z,2.42
2022-10-05T07:22:52.824Z,2.78
2022-10-05T07:25:24.146Z,1.98
2022-10-05T07:28:00.174Z,2.92
2022-10-05T07:30:26.843Z,2.40
2022-10-05T07:33:24.317Z,2.55
2022-10-05T07:36:35.442Z,1.98
2022-10-05T07:39:15.724Z,2.47
2022-10-05T07:41:52.570Z,1.55
2022-10-05T07:44:33.338Z,1.77
2022-10-05T07:47:25.110Z,1.83
2022-10-05T07:50:02.508Z,1.73
2022-10-05T07:52:38.096Z,2.15
2022-10-05T07:55:17.780Z,2.00
2022-10-05T07:58:35.272Z,1.80
2022-10-05T08:01:13.914Z,1.60
2022-10-05T08:03:53.772Z,1.77
2022-10-05T08:06:43.998Z,1.55
2022-10-05T08:09:13.468Z,1.50
2022-10-05T08:11:58.171Z,1.75
2022-10-05T08:14:33.573Z,1.88
2022-10-05T08:17:09.259Z,6.03
2022-10-05T08:19:46.919Z,5.65
2022-10-05T08:22:23.132Z,3.92
2022-10-05T08:24:57.991Z,5.65
2022-10-05T08:27:30.929Z,4.40
2022-10-05T08:30:09.307Z,3.75
2022-10-05T08:32:48.021Z,3.75
2022-10-05T08:35:24.285Z,3.50
2022-10-05T08:37:54.493Z,3.88
2022-10-05T08:40:33.073Z,3.40
2022-10-05T08:43:11.512Z,3.20
2022-10-05T08:46:02.948Z,3.38
2022-10-05T08:49:04.471Z,3.35
2022-10-05T08:51:36.808Z,3.70
2022-10-05T08:54:24.390Z,4.18
2022-10-05T08:56:59.727Z,3.58
2022-10-05T08:59:47.677Z,3.55
2022-10-05T09:02:49.347Z,3.30
2022-10-05T09:05:18.932Z,3.55
2022-10-05T09:08:04.398Z,3.72
2022-10-05T09:11:02.556Z,3.10
2022-10-05T09:13:48.287Z,3.55
2022-10-05T09:16:36.940Z,3.20
2022-10-05T09:19:34.110Z,3.08
2022-10-05T09:22:15.730Z,4.65
2022-10-05T09:24:46.265Z,3.10
2022-10-05T09:27:21.978Z,2.67
2022-10-05T09:30:13.462Z,2.90
2022-10-05T09:33:01.562Z,2.80
2022-10-05T09:36:05.039Z,2.83
2022-10-05T09:39:33.252Z,3.40
2022-10-05T09:42:27.314Z,3.10
2022-10-05T09:44:53.837Z,2.70
2022-10-05T09:47:29.393Z,2.67
2022-10-05T09:50:14.031Z,2.75
2022-10-05T09:53:09.727Z,2.42
2022-10-05T09:56:12.843Z,2.58
2022-10-05T09:59:07.566Z,2.50
2022-10-05T10:01:40.147Z,2.50
2022-10-05T10:04:13.705Z,2.25
2022-10-05T10:06:40.143Z,2.33
2022-10-05T10:09:12.142Z,2.28
2022-10-05T10:12:01.827Z,2.40
2022-10-05T10:14:53.277Z,2.53
2022-10-05T10:18:10.989Z,2.60
2022-10-05T10:21:03.081Z,2.65
2022-10-05T10:23:48.056Z,2.67
2022-10-05T10:26:17.266Z,2.55
2022-10-05T10:29:05.807Z,2.63
2022-10-05T10:31:54.293Z,2.70
2022-10-05T10:34:40.091Z,2.50
2022-10-05T10:38:00.484Z,2.35
2022-10-05T10:40:42.405Z,2.67
2022-10-05T10:43:46.103Z,2.40
2022-10-05T10:46:53.990Z,2.50
2022-10-05T10:49:35.870Z,2.40
2022-10-05T10:52:18.841Z,2.10
2022-10-05T10:54:48.644Z,2.30
2022-10-05T10:57:36.796Z,2.33
2022-10-05T11:00:06.388Z,2.67
2022-10-05T11:02:55.226Z,2.30
2022-10-05T11:05:48.818Z,2.75
2022-10-05T11:08:36.153Z,2.33
2022-10-05T11:11:08.837Z,2.30
2022-10-05T11:13:47.942Z,1.92
2022-10-05T11:16:53.716Z,2.30
2022-10-05T11:20:04.037Z,2.30
2022-10-05T11:22:51.237Z,1.98
2022-10-05T11:25:36.511Z,2.25
2022-10-05T11:28:06.182Z,2.65
2022-10-05T11:30:51.242Z,2.10
2022-10-05T11:33:49.945Z,2.33
2022-10-05T11:36:34.970Z,1.80
2022-10-05T11:39:36.997Z,1.90
2022-10-05T11:42:24.812Z,2.03
2022-10-05T11:45:14.559Z,2.25
2022-10-05T11:48:07.299Z,2.20
2022-10-05T11:51:00.083Z,2.38
2022-10-05T11:53:41.123Z,2.30
2022-10-05T11:56:26.089Z,1.95
2022-10-05T11:59:11.895Z,2.63
2022-10-05T12:01:46.861Z,2.70
2022-10-05T12:04:28.362Z,2.20
2022-10-05T12:07:03.061Z,2.20
2022-10-05T12:10:05.102Z,2.30
2022-10-05T12:12:39.826Z,2.10
2022-10-05T12:15:19.078Z,1.98
2022-10-05T12:18:13.766Z,2.10
2022-10-05T12:20:46.628Z,2.00
2022-10-05T12:23:35.213Z,2.30
2022-10-05T12:26:11.148Z,1.90
2022-10-05T12:28:59.317Z,2.45
2022-10-05T12:31:41.154Z,2.45
2022-10-05T12:34:36.906Z,2.10
2022-10-05T12:37:28.627Z,2.10
2022-10-05T12:40:06.228Z,2.30
2022-10-05T12:42:54.825Z,2.20
2022-10-05T12:45:23.892Z,2.53
2022-10-05T12:48:15.211Z,2.35
2022-10-05T12:50:46.492Z,2.60
2022-10-05T12:53:48.514Z,2.72
2022-10-05T12:56:27.358Z,2.50
2022-10-05T12:58:56.507Z,2.50
2022-10-05T13:01:37.173Z,2.42
2022-10-05T13:04:11.018Z,2.25
2022-10-05T13:07:14.492Z,2.60
2022-10-05T13:09:51.242Z,2.40
2022-10-05T13:12:46.121Z,2.33
2022-10-05T13:15:25.371Z,2.30
2022-10-05T13:18:05.970Z,2.20
2022-10-05T13:20:42.406Z,2.38
2022-10-05T13:23:25.196Z,2.25
2022-10-05T13:26:12.205Z,2.00
2022-10-05T13:28:44.661Z,2.10
2022-10-05T13:31:30.908Z,2.03
2022-10-05T13:34:33.746Z,2.00
2022-10-05T13:37:28.000Z,2.20
2022-10-05T13:40:03.743Z,1.95
2022-10-05T13:42:52.652Z,2.05
2022-10-05T13:45:26.019Z,2.22
2022-10-05T13:47:52.553Z,2.20
2022-10-05T13:50:28.557Z,2.00
2022-10-05T13:53:00.337Z,2.17
2022-10-05T13:55:37.187Z,2.00
2022-10-05T13:58:15.861Z,2.05
2022-10-05T14:00:52.936Z,1.90
2022-10-05T14:03:35.167Z,2.20
2022-10-05T14:06:12.317Z,2.00
2022-10-05T14:08:51.624Z,2.10
2022-10-05T14:11:30.603Z,2.20
2022-10-05T14:14:10.496Z,2.25
2022-10-05T14:16:58.406Z,2.03
2022-10-05T14:19:31.297Z,1.90
2022-10-05T14:22:03.519Z,1.90
2022-10-05T14:24:44.801Z,2.40
2022-10-05T14:27:27.479Z,2.10
2022-10-05T14:30:12.162Z,2.47
2022-10-05T14:33:17.155Z,2.10
2022-10-05T14:35:49.086Z,2.30
2022-10-05T14:38:56.063Z,2.20
2022-10-05T14:41:27.561Z,2.30
2022-10-05T14:44:09.355Z,2.20
2022-10-05T14:46:37.193Z,2.30
2022-10-05T14:49:21.172Z,2.22
2022-10-05T14:51:48.815Z,1.90
2022-10-05T14:54:35.862Z,2.13
2022-10-05T14:57:34.156Z,2.30
2022-10-05T15:00:11.853Z,2.50
2022-10-05T15:02:50.232Z,2.10
2022-10-05T15:05:49.419Z,2.33
2022-10-05T15:08:48.181Z,2.20
2022-10-05T15:11:30.048Z,2.33
2022-10-05T15:13:58.823Z,2.58
2022-10-05T15:16:39.094Z,2.10
2022-10-05T15:19:20.984Z,2.33
2022-10-05T15:21:55.971Z,2.40
2022-10-05T15:24:26.710Z,2.20
2022-10-05T15:27:04.026Z,2.30
2022-10-05T15:30:04.413Z,2.35
2022-10-05T15:32:39.043Z,2.30
2022-10-05T15:35:17.410Z,2.20
2022-10-05T15:37:53.151Z,2.60
2022-10-05T15:40:37.069Z,2.60
2022-10-05T15:43:11.580Z,3.15
2022-10-05T15:45:47.597Z,3.10
2022-10-05T15:48:39.354Z,3.20
2022-10-05T15:51:17.043Z,2.80
2022-10-05T15:54:17.588Z,3.13
2022-10-05T15:57:20.838Z,3.03
2022-10-05T15:59:56.094Z,3.03
2022-10-05T16:02:29.899Z,3.03
2022-10-05T16:05:19.884Z,3.40
2022-10-05T16:08:10.928Z,4.25
2022-10-05T16:10:44.191Z,4.35
2022-10-05T16:13:59.893Z,4.40
2022-10-05T16:16:47.162Z,4.18
2022-10-05T16:19:29.593Z,4.30
2022-10-05T16:22:14.189Z,4.72
2022-10-05T16:24:50.736Z,4.65
2022-10-05T16:27:49.752Z,4.40
2022-10-05T16:30:25.332Z,4.10
2022-10-05T16:33:26.124Z,3.78
2022-10-05T16:36:09.725Z,3.70
2022-10-05T16:38:52.379Z,2.85
2022-10-05T16:41:30.194Z,2.72
2022-10-05T16:44:02.668Z,2.85
2022-10-05T16:46:37.139Z,2.78
2022-10-05T16:49:15.626Z,2.90
2022-10-05T16:52:05.088Z,2.90
2022-10-05T16:54:37.791Z,2.70
2022-10-05T16:57:20.096Z,2.80
2022-10-05T17:00:08.111Z,3.40
2022-10-05T17:02:58.785Z,3.00
2022-10-05T17:05:51.351Z,3.30
2022-10-05T17:08:45.500Z,3.00
2022-10-05T17:11:33.217Z,2.88
2022-10-05T17:14:33.334Z,2.70
2022-10-05T17:16:59.776Z,2.72
2022-10-05T17:19:41.119Z,2.85
2022-10-05T17:22:22.725Z,2.83
2022-10-05T17:25:01.813Z,2.70
2022-10-05T17:27:51.028Z,2.90
2022-10-05T17:30:27.170Z,2.80
2022-10-05T17:33:26.294Z,2.03
2022-10-05T17:36:45.455Z,2.63
2022-10-05T17:39:14.669Z,2.72
2022-10-05T17:41:41.434Z,2.90
2022-10-05T17:44:19.078Z,2.85
2022-10-05T17:46:57.355Z,3.28
2022-10-05T17:50:14.753Z,3.13
2022-10-05T17:53:02.814Z,2.70
2022-10-05T17:55:32.144Z,2.70
2022-10-05T17:58:20.145Z,2.58
2022-10-05T18:00:58.952Z,3.00
2022-10-05T18:03:37.795Z,3.00
2022-10-05T18:06:26.427Z,2.50
2022-10-05T18:09:11.567Z,2.88
2022-10-05T18:11:41.299Z,3.10
2022-10-05T18:14:24.807Z,3.05
2022-10-05T18:17:11.853Z,2.70
2022-10-05T18:19:39.594Z,3.08
2022-10-05T18:22:18.327Z,2.90
2022-10-05T18:24:56.127Z,2.92
2022-10-05T18:27:47.773Z,3.13
2022-10-05T18:30:24.835Z,2.97
2022-10-05T18:33:17.553Z,2.97
2022-10-05T18:36:05.900Z,3.40
2022-10-05T18:38:55.956Z,3.33
2022-10-05T18:41:40.310Z,3.30
2022-10-05T18:44:34.730Z,3.40
2022-10-05T18:47:41.023Z,3.17
2022-10-05T18:50:07.514Z,3.20
2022-10-05T18:53:01.164Z,2.97
2022-10-05T18:56:04.020Z,3.03
2022-10-05T18:59:34.224Z,2.80
2022-10-05T19:02:13.799Z,2.80
2022-10-05T19:04:40.732Z,3.10
2022-10-05T19:07:16.806Z,3.13
2022-10-05T19:10:04.907Z,3.50
2022-10-05T19:12:55.802Z,3.10
2022-10-05T19:15:47.401Z,3.08
2022-10-05T19:18:14.381Z,3.30
2022-10-05T19:20:50.522Z,3.40
2022-10-05T19:23:20.013Z,2.90
2022-10-05T19:25:51.358Z,2.90
2022-10-05T19:28:21.425Z,3.00
2022-10-05T19:30:50.676Z,3.55
2022-10-05T19:33:35.800Z,3.42
2022-10-05T19:36:24.273Z,3.58
2022-10-05T19:39:19.599Z,3.00
2022-10-05T19:41:54.739Z,3.17
2022-10-05T19:44:38.891Z,3.20
2022-10-05T19:47:33.207Z,3.35
2022-10-05T19:50:23.273Z,3.38
2022-10-05T19:52:52.047Z,3.47
2022-10-05T19:55:39.175Z,3.60
2022-10-05T19:58:21.795Z,3.67
2022-10-05T20:01:13.556Z,3.22
2022-10-05T20:03:41.024Z,3.45
2022-10-05T20:06:10.376Z,3.22
2022-10-05T20:08:43.797Z,3.40
2022-10-05T20:11:23.652Z,3.40
2022-10-05T20:13:53.411Z,3.08
2022-10-05T20:16:46.756Z,3.30
2022-10-05T20:19:55.481Z,3.00
2022-10-05T20:22:35.182Z,3.40
2022-10-05T20:25:06.869Z,3.70
2022-10-05T20:27:44.163Z,3.67
2022-10-05T20:30:16.108Z,3.58
2022-10-05T20:32:43.725Z,3.00
2022-10-05T20:35:10.757Z,3.50
2022-10-05T20:37:37.433Z,3.10
2022-10-05T20:40:05.387Z,3.13
2022-10-05T20:42:34.997Z,3.95
2022-10-05T20:45:03.401Z,3.50
2022-10-05T20:47:30.252Z,3.45
2022-10-05T20:49:57.152Z,4.10
2022-10-05T20:52:23.680Z,3.80
2022-10-05T20:54:53.932Z,3.40
2022-10-05T20:57:24.312Z,3.30
2022-10-05T20:59:51.515Z,3.35
2022-10-05T21:02:20.907Z,3.60
2022-10-05T21:04:48.074Z,3.38
2022-10-05T21:07:21.097Z,3.63
2022-10-05T21:09:47.652Z,3.38
2022-10-05T21:12:16.265Z,3.10
2022-10-05T21:14:42.793Z,3.60
2022-10-05T21:17:09.564Z,2.90
2022-10-05T21:19:39.464Z,3.20
2022-10-05T21:22:07.758Z,3.30
2022-10-05T21:24:39.457Z,3.90
2022-10-05T21:27:07.028Z,1.92
2022-10-05T21:29:34.374Z,1.52
2022-10-05T21:32:01.307Z,1.35
2022-10-05T21:34:28.682Z,0.70
2022-10-05T21:36:55.471Z,1.20
2022-10-05T21:39:22.003Z,1.02
2022-10-05T21:41:49.769Z,1.23
2022-10-05T21:44:16.749Z,1.17
2022-10-05T21:46:43.494Z,3.95
2022-10-05T21:49:10.061Z,3.28
2022-10-05T21:51:38.134Z,3.47
2022-10-05T21:54:11.631Z,3.60
2022-10-05T21:56:43.053Z,3.20
2022-10-05T21:59:12.627Z,3.10
2022-10-05T22:01:39.313Z,3.22
2022-10-05T22:04:06.715Z,3.55
2022-10-05T22:06:35.533Z,3.60
2022-10-05T22:09:03.276Z,1.30
2022-10-05T22:11:29.835Z,1.00
2022-10-05T22:14:02.409Z,1.20
2022-10-05T22:16:32.850Z,1.35
2022-10-05T22:19:03.710Z,2.25
2022-10-05T22:21:30.569Z,3.35
2022-10-05T22:23:57.380Z,3.15
2022-10-05T22:26:24.590Z,3.22
2022-10-05T22:28:52.426Z,3.53
2022-10-05T22:31:19.009Z,3.10
2022-10-05T22:33:45.553Z,3.50
2022-10-05T22:36:12.103Z,3.83
2022-10-05T22:38:38.771Z,3.80
2022-10-05T22:41:10.857Z,3.70
2022-10-05T22:43:37.657Z,3.30
2022-10-05T22:46:11.478Z,2.90
2022-10-05T22:48:41.480Z,3.33
2022-10-05T22:51:08.760Z,3.20
2022-10-05T22:53:35.526Z,4.63
2022-10-05T22:56:11.096Z,3.50
2022-10-05T22:58:40.374Z,3.53
2022-10-05T23:01:10.199Z,3.47
2022-10-05T23:03:36.974Z,3.38
2022-10-05T23:06:06.487Z,3.25
2022-10-05T23:08:34.038Z,3.50
2022-10-05T23:11:05.121Z,3.70
2022-10-05T23:13:32.659Z,3.72
2022-10-05T23:16:09.283Z,3.47
2022-10-05T23:18:36.213Z,3.15
2022-10-05T23:21:03.640Z,4.45
2022-10-05T23:23:30.134Z,1.63
2022-10-05T23:26:00.484Z,1.40
2022-10-05T23:28:28.670Z,2.05
2022-10-05T23:31:04.639Z,2.00
2022-10-05T23:33:31.704Z,1.70
2022-10-05T23:36:16.829Z,1.83
2022-10-05T23:38:43.605Z,1.48
2022-10-05T23:41:10.839Z,1.27
2022-10-05T23:43:37.677Z,1.50
2022-10-05T23:46:05.623Z,1.50
2022-10-05T23:48:32.716Z,1.55
2022-10-05T23:50:59.810Z,1.55
2022-10-05T23:53:26.461Z,1.55
2022-10-05T23:55:53.866Z,1.63
2022-10-05T23:58:21.593Z,1.77
